Time;durP1;ratioP1;P1;durP2;ratioP2;P2;SDS_P1;SDS_P2;PMS_P1;PMS_P2;Temp;Humidity;BMP_temperature;BMP_pressure;BME280_temperature;BME280_humidity;BME280_pressure;Samples;Min_cycle;Max_cycle;Signal;HPM_P1;HPM_P2
2022/07/18 00:00:09;;;;;;;24.02;19.42;;;;;;;;;;1662369;29;21797;-59
2022/07/18 00:01:01;;;;;;;25.52;19.80;;;;;;;;;;1664704;29;21566;-59
2022/07/18 00:01:54;;;;;;;24.88;19.50;;;;;;;;;;1656355;29;21586;-60
2022/07/18 00:02:46;;;;;;;26.60;20.58;;;;;;;;;;1661521;29;21920;-59
2022/07/18 00:03:37;;;;;;;24.77;20.73;;;;;;;;;;1663591;29;22501;-59
2022/07/18 00:04:30;;;;;;;33.20;22.23;;;;;;;;;;1662538;29;21619;-61
2022/07/18 00:05:22;;;;;;;32.80;22.45;;;;;;;;;;1662289;29;21651;-59
2022/07/18 00:06:14;;;;;;;31.77;22.95;;;;;;;;;;1662742;29;21649;-59
2022/07/18 00:07:05;;;;;;;29.15;22.52;;;;;;;;;;1662774;29;21828;-60
2022/07/18 00:07:57;;;;;;;31.25;22.23;;;;;;;;;;1661867;29;22719;-60
2022/07/18 00:08:49;;;;;;;26.70;22.05;;;;;;;;;;1663230;29;22485;-60
2022/07/18 00:09:43;;;;;;;30.23;23.33;;;;;;;;;;1662859;29;22046;-60
2022/07/18 00:10:35;;;;;;;33.00;23.10;;;;;;;;;;1656999;29;21648;-59
2022/07/18 00:11:28;;;;;;;31.45;22.30;;;;;;;;;;1654600;29;21631;-60
2022/07/18 00:12:19;;;;;;;32.90;21.58;;;;;;;;;;1661289;29;21618;-60
2022/07/18 00:13:11;;;;;;;35.55;22.30;;;;;;;;;;1663635;29;21721;-60
2022/07/18 00:14:02;;;;;;;28.00;21.00;;;;;;;;;;1662213;29;21763;-59
2022/07/18 00:14:55;;;;;;;25.75;20.50;;;;;;;;;;1663413;29;21579;-60
2022/07/18 00:15:46;;;;;;;28.55;20.58;;;;;;;;;;1662568;29;21645;-59
2022/07/18 00:16:38;;;;;;;28.27;20.77;;;;;;;;;;1661943;29;21596;-60
2022/07/18 00:17:29;;;;;;;25.45;19.85;;;;;;;;;;1660798;29;22004;-59
2022/07/18 00:18:22;;;;;;;28.90;21.27;;;;;;;;;;1663116;29;22521;-60
2022/07/18 00:19:14;;;;;;;27.75;20.95;;;;;;;;;;1662175;29;22363;-59
2022/07/18 00:20:12;;;;;;;26.77;20.73;;;;;;;;;;1662609;29;21596;-60
2022/07/18 00:21:03;;;;;;;22.73;19.38;;;;;;;;;;1664872;29;22448;-59
2022/07/18 00:21:55;;;;;;;27.02;20.35;;;;;;;;;;1662768;29;22465;-60
2022/07/18 00:22:47;;;;;;;27.05;20.48;;;;;;;;;;1662307;29;21619;-60
2022/07/18 00:23:39;;;;;;;29.08;19.60;;;;;;;;;;1661890;29;21614;-59
2022/07/18 00:24:31;;;;;;;23.95;19.90;;;;;;;;;;1662285;29;22609;-60
2022/07/18 00:25:24;;;;;;;25.42;19.75;;;;;;;;;;1662356;29;21672;-59
2022/07/18 00:26:17;;;;;;;24.10;20.73;;;;;;;;;;1665651;29;22712;-60
2022/07/18 00:27:09;;;;;;;29.58;20.08;;;;;;;;;;1655527;29;22087;-59
2022/07/18 00:28:00;;;;;;;34.60;20.17;;;;;;;;;;1654225;29;21628;-60
2022/07/18 00:28:53;;;;;;;26.17;20.08;;;;;;;;;;1660985;29;21644;-60
2022/07/18 00:29:45;;;;;;;26.10;20.42;;;;;;;;;;1662635;29;22052;-60
2022/07/18 00:30:37;;;;;;;27.80;19.77;;;;;;;;;;1662961;29;21712;-60
2022/07/18 00:31:28;;;;;;;25.42;18.95;;;;;;;;;;1663645;29;22834;-58
2022/07/18 00:32:20;;;;;;;23.65;19.80;;;;;;;;;;1662324;29;22676;-59
2022/07/18 00:33:11;;;;;;;22.85;19.10;;;;;;;;;;1661892;29;21592;-60
2022/07/18 00:34:04;;;;;;;26.73;20.15;;;;;;;;;;1665102;29;21678;-59
2022/07/18 00:34:55;;;;;;;27.25;20.55;;;;;;;;;;1663224;29;21590;-60
2022/07/18 00:35:48;;;;;;;32.47;20.77;;;;;;;;;;1663109;29;22625;-60
2022/07/18 00:36:39;;;;;;;22.40;19.48;;;;;;;;;;1662604;29;21644;-60
2022/07/18 00:37:31;;;;;;;24.63;20.13;;;;;;;;;;1662104;29;21594;-59
2022/07/18 00:38:22;;;;;;;25.35;19.05;;;;;;;;;;1660931;29;21609;-61
2022/07/18 00:39:15;;;;;;;23.42;19.10;;;;;;;;;;1657019;29;22558;-59
2022/07/18 00:40:08;;;;;;;34.00;20.33;;;;;;;;;;1655334;29;21704;-60
2022/07/18 00:41:00;;;;;;;29.15;19.95;;;;;;;;;;1661906;29;21593;-60
2022/07/18 00:41:53;;;;;;;25.45;18.98;;;;;;;;;;1662234;29;22258;-59
2022/07/18 00:42:46;;;;;;;25.63;20.70;;;;;;;;;;1662435;29;21657;-60
2022/07/18 00:43:37;;;;;;;29.48;21.90;;;;;;;;;;1661826;29;22230;-59
2022/07/18 00:44:30;;;;;;;33.90;22.35;;;;;;;;;;1661817;29;21616;-60
2022/07/18 00:45:21;;;;;;;33.40;22.55;;;;;;;;;;1662270;29;22055;-59
2022/07/18 00:46:13;;;;;;;39.85;23.77;;;;;;;;;;1661989;29;21622;-60
2022/07/18 00:47:04;;;;;;;41.42;24.70;;;;;;;;;;1660745;29;21639;-59
2022/07/18 00:47:57;;;;;;;32.35;24.55;;;;;;;;;;1656119;29;22691;-60
2022/07/18 00:48:48;;;;;;;31.70;23.52;;;;;;;;;;1654417;29;21608;-60
2022/07/18 00:49:41;;;;;;;39.47;25.48;;;;;;;;;;1659818;29;21718;-59
2022/07/18 00:50:32;;;;;;;34.25;26.17;;;;;;;;;;1656926;29;21769;-58
2022/07/18 00:51:24;;;;;;;40.58;27.95;;;;;;;;;;1661228;29;21753;-60
2022/07/18 00:52:15;;;;;;;41.92;29.42;;;;;;;;;;1661795;29;22489;-60
2022/07/18 00:53:10;;;;;;;61.00;31.50;;;;;;;;;;1662365;29;21750;-60
2022/07/18 00:54:03;;;;;;;53.45;33.00;;;;;;;;;;1661867;29;21777;-60
2022/07/18 00:54:55;;;;;;;50.97;33.00;;;;;;;;;;1662228;29;21587;-60
2022/07/18 00:55:47;;;;;;;55.83;35.25;;;;;;;;;;1662592;29;22101;-60
2022/07/18 00:56:40;;;;;;;57.15;36.20;;;;;;;;;;1662987;29;21877;-58
2022/07/18 00:57:33;;;;;;;59.80;37.03;;;;;;;;;;1661579;29;22078;-60
2022/07/18 00:58:25;;;;;;;58.95;35.95;;;;;;;;;;1661481;29;22396;-60
2022/07/18 00:59:17;;;;;;;61.15;37.40;;;;;;;;;;1664475;29;21691;-59
2022/07/18 01:02:34;;;;;;;56.45;36.72;;;;;;;;;;1661918;29;22134;-59
2022/07/18 01:03:25;;;;;;;58.92;38.53;;;;;;;;;;1661108;29;21604;-58
2022/07/18 01:04:20;;;;;;;69.13;36.85;;;;;;;;;;1663680;29;22083;-59
2022/07/18 01:05:11;;;;;;;62.70;37.95;;;;;;;;;;1662203;29;22133;-59
2022/07/18 01:06:03;;;;;;;64.97;36.95;;;;;;;;;;1661146;29;22967;-59
2022/07/18 01:06:55;;;;;;;62.33;37.38;;;;;;;;;;1662400;29;22386;-60
2022/07/18 01:07:47;;;;;;;61.95;36.58;;;;;;;;;;1662682;29;21650;-59
2022/07/18 01:08:42;;;;;;;72.18;37.53;;;;;;;;;;1662925;29;22352;-60
2022/07/18 01:09:34;;;;;;;70.75;37.80;;;;;;;;;;1662093;29;22592;-59
2022/07/18 01:10:26;;;;;;;64.53;38.75;;;;;;;;;;1662734;29;21846;-59
2022/07/18 01:11:18;;;;;;;59.45;37.67;;;;;;;;;;1663218;29;21633;-60
2022/07/18 01:12:10;;;;;;;66.07;37.95;;;;;;;;;;1661969;29;22568;-60
2022/07/18 01:13:04;;;;;;;61.90;36.47;;;;;;;;;;1662081;29;22414;-59
2022/07/18 01:13:55;;;;;;;64.03;37.55;;;;;;;;;;1662185;29;22538;-60
2022/07/18 01:14:48;;;;;;;64.97;36.13;;;;;;;;;;1663808;29;21876;-61
2022/07/18 01:15:39;;;;;;;64.45;36.10;;;;;;;;;;1663285;29;21611;-59
2022/07/18 01:16:32;;;;;;;67.35;37.85;;;;;;;;;;1662894;29;22540;-60
2022/07/18 01:17:24;;;;;;;63.10;36.40;;;;;;;;;;1662944;29;21743;-60
2022/07/18 01:18:16;;;;;;;64.93;36.63;;;;;;;;;;1662478;29;21654;-60
2022/07/18 01:19:09;;;;;;;65.80;36.30;;;;;;;;;;1661347;29;21603;-60
2022/07/18 01:20:02;;;;;;;58.83;36.78;;;;;;;;;;1661339;29;21819;-59
2022/07/18 01:20:55;;;;;;;56.95;35.45;;;;;;;;;;1663085;29;21609;-59
2022/07/18 01:21:47;;;;;;;58.35;35.28;;;;;;;;;;1662222;29;21890;-61
2022/07/18 01:22:38;;;;;;;60.97;33.88;;;;;;;;;;1662171;29;22367;-58
2022/07/18 01:23:31;;;;;;;57.47;34.08;;;;;;;;;;1661652;29;21617;-59
2022/07/18 01:24:22;;;;;;;52.53;34.00;;;;;;;;;;1661114;29;21931;-59
2022/07/18 01:25:16;;;;;;;56.92;33.28;;;;;;;;;;1664568;29;22058;-59
2022/07/18 01:26:08;;;;;;;55.88;33.17;;;;;;;;;;1663355;29;21648;-60
2022/07/18 01:27:01;;;;;;;54.85;33.40;;;;;;;;;;1655969;29;21820;-59
2022/07/18 01:27:52;;;;;;;52.25;32.33;;;;;;;;;;1657356;29;22219;-60
2022/07/18 01:28:45;;;;;;;67.57;34.17;;;;;;;;;;1662095;29;21655;-60
2022/07/18 01:29:36;;;;;;;55.03;32.95;;;;;;;;;;1662562;29;21780;-60
2022/07/18 01:30:29;;;;;;;53.35;32.17;;;;;;;;;;1661228;29;21619;-59
2022/07/18 01:31:20;;;;;;;60.03;33.20;;;;;;;;;;1662582;29;21590;-60
2022/07/18 01:32:13;;;;;;;59.13;33.25;;;;;;;;;;1662421;29;22080;-61
2022/07/18 01:33:05;;;;;;;52.97;33.30;;;;;;;;;;1660726;29;21647;-59
2022/07/18 01:33:57;;;;;;;58.67;33.22;;;;;;;;;;1661970;29;22162;-59
2022/07/18 01:34:49;;;;;;;52.75;31.80;;;;;;;;;;1657642;29;21965;-60
2022/07/18 01:35:42;;;;;;;60.53;33.85;;;;;;;;;;1661206;29;21589;-59
2022/07/18 01:36:35;;;;;;;60.30;34.25;;;;;;;;;;1662892;29;21717;-59
2022/07/18 01:37:27;;;;;;;55.15;33.53;;;;;;;;;;1655260;29;21932;-60
2022/07/18 01:38:19;;;;;;;59.40;34.63;;;;;;;;;;1663389;29;21990;-60
2022/07/18 01:39:11;;;;;;;66.20;34.53;;;;;;;;;;1661830;29;21857;-59
2022/07/18 01:40:08;;;;;;;57.30;34.25;;;;;;;;;;1662307;29;21678;-60
2022/07/18 01:41:01;;;;;;;62.58;34.08;;;;;;;;;;1661555;29;22565;-60
2022/07/18 01:41:56;;;;;;;58.05;33.08;;;;;;;;;;1655871;29;21666;-59
2022/07/18 01:42:48;;;;;;;54.53;32.05;;;;;;;;;;1648688;29;21603;-60
2022/07/18 01:43:41;;;;;;;55.00;31.77;;;;;;;;;;1655716;29;21614;-60
2022/07/18 01:44:36;;;;;;;47.55;31.85;;;;;;;;;;1662864;29;21678;-60
2022/07/18 01:45:27;;;;;;;56.92;33.65;;;;;;;;;;1656778;29;21655;-58
2022/07/18 01:46:19;;;;;;;61.22;37.28;;;;;;;;;;1662312;29;21651;-60
2022/07/18 01:47:12;;;;;;;59.45;37.65;;;;;;;;;;1662128;29;21770;-60
2022/07/18 01:48:05;;;;;;;60.38;37.90;;;;;;;;;;1661808;29;21765;-59
2022/07/18 01:48:56;;;;;;;64.97;36.67;;;;;;;;;;1660746;29;21593;-59
2022/07/18 01:49:48;;;;;;;67.65;39.92;;;;;;;;;;1661732;29;22394;-59
2022/07/18 01:50:39;;;;;;;70.50;41.63;;;;;;;;;;1663306;29;21557;-59
2022/07/18 01:51:32;;;;;;;68.95;41.35;;;;;;;;;;1661831;29;22052;-60
2022/07/18 01:52:24;;;;;;;69.15;42.78;;;;;;;;;;1661473;29;21711;-60
2022/07/18 01:53:17;;;;;;;65.28;42.42;;;;;;;;;;1662101;29;21583;-58
2022/07/18 01:54:08;;;;;;;63.67;41.20;;;;;;;;;;1663464;29;21580;-59
2022/07/18 01:55:00;;;;;;;70.72;41.63;;;;;;;;;;1661556;29;21828;-61
2022/07/18 01:55:52;;;;;;;66.28;41.13;;;;;;;;;;1654967;29;21747;-61
2022/07/18 01:56:44;;;;;;;64.00;41.80;;;;;;;;;;1655054;29;21655;-61
2022/07/18 01:57:36;;;;;;;68.57;41.78;;;;;;;;;;1658775;29;21609;-59
2022/07/18 01:58:28;;;;;;;66.65;42.90;;;;;;;;;;1661137;29;22154;-60
2022/07/18 01:59:20;;;;;;;70.40;43.80;;;;;;;;;;1661999;29;22030;-60
2022/07/18 02:00:13;;;;;;;67.38;44.92;;;;;;;;;;1662838;29;21905;-60
2022/07/18 02:01:05;;;;;;;68.50;42.67;;;;;;;;;;1653542;29;21666;-60
2022/07/18 02:01:56;;;;;;;65.72;43.80;;;;;;;;;;1655097;29;21779;-60
2022/07/18 02:02:49;;;;;;;66.25;41.67;;;;;;;;;;1660279;29;21786;-59
2022/07/18 02:03:40;;;;;;;66.47;43.15;;;;;;;;;;1661968;29;21629;-61
2022/07/18 02:05:42;;;;;;;64.47;43.50;;;;;;;;;;1662038;29;21998;-60
2022/07/18 02:06:33;;;;;;;63.30;42.58;;;;;;;;;;1662782;29;21658;-59
2022/07/18 02:07:26;;;;;;;72.65;46.05;;;;;;;;;;1662781;29;21583;-59
2022/07/18 02:08:19;;;;;;;73.88;44.17;;;;;;;;;;1652984;29;21688;-59
2022/07/18 02:09:11;;;;;;;67.75;43.05;;;;;;;;;;1655915;29;21651;-60
2022/07/18 02:10:07;;;;;;;69.32;43.20;;;;;;;;;;1660371;29;21764;-59
2022/07/18 02:10:59;;;;;;;67.57;42.45;;;;;;;;;;1658070;29;21825;-59
2022/07/18 02:11:51;;;;;;;66.15;42.60;;;;;;;;;;1662096;29;21634;-60
2022/07/18 02:12:42;;;;;;;72.15;41.95;;;;;;;;;;1661838;29;22470;-60
2022/07/18 02:13:54;;;;;;;64.32;41.20;;;;;;;;;;1652918;29;21661;-60
2022/07/18 02:14:45;;;;;;;69.82;43.17;;;;;;;;;;1655762;29;21676;-60
2022/07/18 02:15:38;;;;;;;64.25;40.90;;;;;;;;;;1663262;29;22928;-59
2022/07/18 02:16:30;;;;;;;65.45;43.17;;;;;;;;;;1662431;29;21604;-59
2022/07/18 02:17:21;;;;;;;65.38;40.90;;;;;;;;;;1664170;29;21739;-60
2022/07/18 02:18:13;;;;;;;73.70;45.35;;;;;;;;;;1663725;29;22071;-59
2022/07/18 02:19:04;;;;;;;74.40;45.80;;;;;;;;;;1663652;29;22415;-59
2022/07/18 02:19:56;;;;;;;71.97;46.78;;;;;;;;;;1664521;29;22405;-60
2022/07/18 02:20:48;;;;;;;75.00;46.83;;;;;;;;;;1663373;29;22578;-59
2022/07/18 02:21:40;;;;;;;74.65;46.05;;;;;;;;;;1663789;29;22561;-60
2022/07/18 02:22:33;;;;;;;73.15;46.28;;;;;;;;;;1663066;29;21700;-59
2022/07/18 02:23:25;;;;;;;66.88;45.05;;;;;;;;;;1663860;29;21598;-59
2022/07/18 02:24:16;;;;;;;69.28;44.33;;;;;;;;;;1662620;29;21652;-60
2022/07/18 02:25:10;;;;;;;67.97;44.13;;;;;;;;;;1664002;29;21688;-60
2022/07/18 02:26:02;;;;;;;67.93;44.55;;;;;;;;;;1663245;29;21686;-59
2022/07/18 02:26:54;;;;;;;70.10;44.75;;;;;;;;;;1663607;29;21634;-60
2022/07/18 02:27:46;;;;;;;68.15;41.97;;;;;;;;;;1664527;29;21612;-59
2022/07/18 02:28:39;;;;;;;74.13;42.97;;;;;;;;;;1665389;29;21623;-59
2022/07/18 02:29:30;;;;;;;69.78;42.72;;;;;;;;;;1662651;29;22568;-60
2022/07/18 02:30:22;;;;;;;66.20;42.67;;;;;;;;;;1662368;29;21673;-60
2022/07/18 02:31:13;;;;;;;68.50;42.65;;;;;;;;;;1664323;29;22336;-59
2022/07/18 02:32:06;;;;;;;65.55;41.88;;;;;;;;;;1657293;29;21616;-58
2022/07/18 02:32:58;;;;;;;69.78;42.05;;;;;;;;;;1652779;29;21788;-59
2022/07/18 02:33:49;;;;;;;73.05;40.65;;;;;;;;;;1661911;29;21627;-60
2022/07/18 02:34:42;;;;;;;61.97;39.63;;;;;;;;;;1663099;29;22470;-59
2022/07/18 02:35:33;;;;;;;69.38;40.50;;;;;;;;;;1662390;29;21652;-60
2022/07/18 02:36:25;;;;;;;62.22;40.83;;;;;;;;;;1663820;29;21618;-59
2022/07/18 02:37:17;;;;;;;61.83;40.00;;;;;;;;;;1664469;29;21975;-61
2022/07/18 02:38:11;;;;;;;64.78;39.78;;;;;;;;;;1661207;29;21950;-60
2022/07/18 02:39:03;;;;;;;63.78;39.70;;;;;;;;;;1665757;29;22189;-58
2022/07/18 02:39:56;;;;;;;66.63;38.60;;;;;;;;;;1652566;29;21591;-60
2022/07/18 02:40:47;;;;;;;62.10;39.50;;;;;;;;;;1656299;29;22126;-59
2022/07/18 02:41:39;;;;;;;60.13;37.63;;;;;;;;;;1660531;29;21676;-60
2022/07/18 02:42:30;;;;;;;62.60;37.58;;;;;;;;;;1667548;29;22126;-59
2022/07/18 02:43:23;;;;;;;55.08;36.38;;;;;;;;;;1649260;29;21833;-60
2022/07/18 02:44:14;;;;;;;60.97;36.22;;;;;;;;;;1649741;29;22551;-59
2022/07/18 02:45:09;;;;;;;52.35;34.75;;;;;;;;;;1661724;29;21640;-60
2022/07/18 02:46:00;;;;;;;58.67;36.42;;;;;;;;;;1662639;29;22540;-59
2022/07/18 02:46:52;;;;;;;61.38;36.20;;;;;;;;;;1662347;29;22485;-58
2022/07/18 02:47:43;;;;;;;53.17;33.70;;;;;;;;;;1663779;29;21712;-59
2022/07/18 02:48:36;;;;;;;53.80;34.08;;;;;;;;;;1663776;29;22349;-59
2022/07/18 02:49:27;;;;;;;47.38;32.17;;;;;;;;;;1664017;29;21614;-60
2022/07/18 02:50:19;;;;;;;53.67;33.25;;;;;;;;;;1658666;29;21734;-58
2022/07/18 02:51:11;;;;;;;46.28;32.67;;;;;;;;;;1657179;29;21699;-60
2022/07/18 02:52:06;;;;;;;49.15;30.88;;;;;;;;;;1660185;29;21654;-59
2022/07/18 02:52:57;;;;;;;51.90;31.90;;;;;;;;;;1667118;29;22598;-60
2022/07/18 02:53:51;;;;;;;50.55;30.77;;;;;;;;;;1663023;29;22272;-59
2022/07/18 02:54:42;;;;;;;47.28;30.40;;;;;;;;;;1663351;29;22458;-60
2022/07/18 02:55:34;;;;;;;47.88;29.75;;;;;;;;;;1664223;29;21683;-59
2022/07/18 02:56:26;;;;;;;50.38;29.42;;;;;;;;;;1662679;29;22061;-59
2022/07/18 02:57:18;;;;;;;45.08;29.48;;;;;;;;;;1663957;29;22038;-59
2022/07/18 02:58:09;;;;;;;46.72;29.13;;;;;;;;;;1655677;29;21635;-60
2022/07/18 02:59:01;;;;;;;45.92;28.45;;;;;;;;;;1656019;29;21695;-60
2022/07/18 02:59:53;;;;;;;40.20;27.15;;;;;;;;;;1659149;29;21654;-58
2022/07/18 03:00:45;;;;;;;49.75;28.67;;;;;;;;;;1662929;29;21883;-59
2022/07/18 03:01:36;;;;;;;42.25;26.08;;;;;;;;;;1663127;29;21974;-59
2022/07/18 03:02:29;;;;;;;40.17;26.48;;;;;;;;;;1663813;29;21793;-59
2022/07/18 03:03:20;;;;;;;34.65;26.42;;;;;;;;;;1662365;29;22044;-59
2022/07/18 03:04:12;;;;;;;46.03;26.13;;;;;;;;;;1665567;29;22401;-59
2022/07/18 03:05:05;;;;;;;35.90;24.88;;;;;;;;;;1662795;29;21601;-60
2022/07/18 03:05:57;;;;;;;41.78;25.27;;;;;;;;;;1663699;29;21786;-60
2022/07/18 03:06:50;;;;;;;34.45;24.77;;;;;;;;;;1663084;29;21607;-59
2022/07/18 03:07:42;;;;;;;44.45;27.00;;;;;;;;;;1663823;29;22593;-60
2022/07/18 03:08:33;;;;;;;38.88;24.38;;;;;;;;;;1661762;29;22148;-59
2022/07/18 03:09:27;;;;;;;35.25;23.58;;;;;;;;;;1662418;29;22137;-60
2022/07/18 03:10:19;;;;;;;41.85;25.02;;;;;;;;;;1662739;29;21733;-60
2022/07/18 03:11:11;;;;;;;37.08;24.08;;;;;;;;;;1663325;29;21607;-60
2022/07/18 03:12:03;;;;;;;37.60;24.55;;;;;;;;;;1663817;29;21706;-60
2022/07/18 03:12:55;;;;;;;37.08;23.52;;;;;;;;;;1664077;29;21789;-58
2022/07/18 03:13:46;;;;;;;37.67;23.42;;;;;;;;;;1666376;29;21766;-59
2022/07/18 03:14:39;;;;;;;34.50;22.67;;;;;;;;;;1663130;29;22216;-60
2022/07/18 03:15:30;;;;;;;35.30;22.83;;;;;;;;;;1664860;29;21667;-60
2022/07/18 03:16:22;;;;;;;30.20;22.75;;;;;;;;;;1658700;29;21787;-59
2022/07/18 03:17:14;;;;;;;34.35;22.90;;;;;;;;;;1655865;29;21834;-59
2022/07/18 03:18:06;;;;;;;31.65;22.42;;;;;;;;;;1659537;29;22197;-59
2022/07/18 03:18:57;;;;;;;35.65;21.67;;;;;;;;;;1661515;29;22148;-60
2022/07/18 03:19:50;;;;;;;29.15;21.85;;;;;;;;;;1662999;29;21760;-59
2022/07/18 03:20:41;;;;;;;34.40;22.30;;;;;;;;;;1656972;29;22324;-60
2022/07/18 03:21:33;;;;;;;30.27;20.38;;;;;;;;;;1658018;29;21590;-59
2022/07/18 03:22:24;;;;;;;31.88;21.60;;;;;;;;;;1659360;29;21661;-60
2022/07/18 03:23:17;;;;;;;31.88;19.73;;;;;;;;;;1664986;29;22073;-58
2022/07/18 03:24:08;;;;;;;31.80;20.90;;;;;;;;;;1657644;29;21574;-60
2022/07/18 03:25:01;;;;;;;28.98;21.23;;;;;;;;;;1648692;29;22021;-61
2022/07/18 03:25:53;;;;;;;25.67;18.83;;;;;;;;;;1652988;29;21761;-60
2022/07/18 03:26:45;;;;;;;33.45;20.10;;;;;;;;;;1659994;29;21682;-59
2022/07/18 03:27:37;;;;;;;33.65;20.30;;;;;;;;;;1663166;29;21614;-60
2022/07/18 03:28:29;;;;;;;32.13;19.70;;;;;;;;;;1662696;29;21663;-61
2022/07/18 03:29:20;;;;;;;32.85;18.80;;;;;;;;;;1662608;29;21723;-59
2022/07/18 03:30:13;;;;;;;28.90;19.45;;;;;;;;;;1662309;29;21754;-60
2022/07/18 03:31:05;;;;;;;28.05;18.05;;;;;;;;;;1662757;29;22475;-59
2022/07/18 03:31:58;;;;;;;28.23;17.52;;;;;;;;;;1656343;29;21598;-60
2022/07/18 03:32:49;;;;;;;29.55;18.33;;;;;;;;;;1662009;29;22690;-59
2022/07/18 03:33:41;;;;;;;29.20;18.00;;;;;;;;;;1663942;29;21609;-60
2022/07/18 03:34:33;;;;;;;27.88;18.33;;;;;;;;;;1662517;29;22148;-61
2022/07/18 03:35:25;;;;;;;28.98;17.30;;;;;;;;;;1661960;29;22366;-59
2022/07/18 03:36:17;;;;;;;22.67;17.20;;;;;;;;;;1662424;29;21576;-60
2022/07/18 03:37:09;;;;;;;23.00;16.67;;;;;;;;;;1662956;29;21738;-59
2022/07/18 03:38:01;;;;;;;23.27;16.15;;;;;;;;;;1663042;29;21773;-59
2022/07/18 03:38:52;;;;;;;20.15;15.52;;;;;;;;;;1662136;29;21694;-59
2022/07/18 03:39:45;;;;;;;25.45;15.85;;;;;;;;;;1663905;29;22066;-59
2022/07/18 03:40:37;;;;;;;21.33;14.82;;;;;;;;;;1663940;29;21869;-60
2022/07/18 03:41:30;;;;;;;24.60;15.57;;;;;;;;;;1649542;29;21997;-60
2022/07/18 03:42:21;;;;;;;26.33;16.42;;;;;;;;;;1649437;29;22037;-60
2022/07/18 03:43:13;;;;;;;19.15;13.98;;;;;;;;;;1657457;29;21893;-59
2022/07/18 03:44:05;;;;;;;20.55;14.30;;;;;;;;;;1662977;29;21635;-59
2022/07/18 03:44:57;;;;;;;20.90;15.23;;;;;;;;;;1662142;29;22156;-59
2022/07/18 03:45:49;;;;;;;18.90;13.43;;;;;;;;;;1664002;29;21673;-60
2022/07/18 03:46:41;;;;;;;19.65;14.25;;;;;;;;;;1663553;29;21595;-60
2022/07/18 03:47:32;;;;;;;15.18;12.75;;;;;;;;;;1663553;29;22384;-59
2022/07/18 03:48:24;;;;;;;21.83;13.93;;;;;;;;;;1662249;29;22482;-58
2022/07/18 03:49:16;;;;;;;13.98;12.32;;;;;;;;;;1663609;29;21647;-59
2022/07/18 03:50:10;;;;;;;20.80;12.25;;;;;;;;;;1663224;29;21655;-59
2022/07/18 03:51:02;;;;;;;16.85;12.38;;;;;;;;;;1661133;29;21820;-60
2022/07/18 03:51:55;;;;;;;12.77;11.05;;;;;;;;;;1660685;29;22542;-58
2022/07/18 03:52:46;;;;;;;19.85;12.65;;;;;;;;;;1655409;29;21848;-60
2022/07/18 03:53:39;;;;;;;12.98;11.05;;;;;;;;;;1656743;29;21715;-59
2022/07/18 03:54:30;;;;;;;17.38;11.75;;;;;;;;;;1660451;29;21713;-60
2022/07/18 03:55:23;;;;;;;13.15;10.48;;;;;;;;;;1662599;29;22053;-60
2022/07/18 03:56:16;;;;;;;16.55;10.75;;;;;;;;;;1662558;29;22868;-59
2022/07/18 03:57:08;;;;;;;12.52;10.25;;;;;;;;;;1662645;29;21657;-61
2022/07/18 03:57:59;;;;;;;12.23;10.75;;;;;;;;;;1661290;29;21755;-61
2022/07/18 03:58:51;;;;;;;12.05;9.45;;;;;;;;;;1662671;29;22093;-59
2022/07/18 03:59:42;;;;;;;15.35;9.35;;;;;;;;;;1662687;29;22434;-61
2022/07/18 04:00:35;;;;;;;10.98;9.88;;;;;;;;;;1663248;29;22060;-60
2022/07/18 04:01:26;;;;;;;10.50;9.38;;;;;;;;;;1664206;29;21779;-59
2022/07/18 04:02:18;;;;;;;14.02;9.50;;;;;;;;;;1664171;29;22525;-60
2022/07/18 04:03:10;;;;;;;10.55;8.90;;;;;;;;;;1662340;29;21612;-58
2022/07/18 04:04:02;;;;;;;8.95;8.05;;;;;;;;;;1664860;29;22587;-59
2022/07/18 04:04:53;;;;;;;9.90;7.82;;;;;;;;;;1664044;29;21696;-60
2022/07/18 04:05:45;;;;;;;10.73;8.98;;;;;;;;;;1661753;29;22354;-59
2022/07/18 04:06:37;;;;;;;9.60;8.05;;;;;;;;;;1662554;29;22425;-60
2022/07/18 04:07:29;;;;;;;12.77;8.15;;;;;;;;;;1663617;29;22502;-60
2022/07/18 04:08:20;;;;;;;9.88;8.20;;;;;;;;;;1662398;29;21786;-59
2022/07/18 04:09:12;;;;;;;10.10;7.15;;;;;;;;;;1663752;29;22613;-60
2022/07/18 04:10:06;;;;;;;8.80;8.00;;;;;;;;;;1662619;29;21743;-59
2022/07/18 04:10:59;;;;;;;13.60;7.43;;;;;;;;;;1665379;29;21690;-60
2022/07/18 04:11:51;;;;;;;9.75;7.10;;;;;;;;;;1662497;29;21620;-60
2022/07/18 04:12:48;;;;;;;7.00;6.40;;;;;;;;;;1662530;29;21971;-59
2022/07/18 04:13:39;;;;;;;7.70;6.10;;;;;;;;;;1658930;29;22562;-60
2022/07/18 04:14:31;;;;;;;10.30;6.60;;;;;;;;;;1663585;29;21642;-60
2022/07/18 04:15:25;;;;;;;6.63;6.03;;;;;;;;;;1662477;29;22339;-59
2022/07/18 04:16:17;;;;;;;6.97;6.38;;;;;;;;;;1657769;29;22067;-59
2022/07/18 04:17:09;;;;;;;6.43;5.82;;;;;;;;;;1663775;29;21822;-60
2022/07/18 04:18:01;;;;;;;7.85;5.60;;;;;;;;;;1661971;29;21623;-59
2022/07/18 04:18:52;;;;;;;6.20;5.70;;;;;;;;;;1662154;29;21614;-58
2022/07/18 04:19:44;;;;;;;6.43;5.82;;;;;;;;;;1661887;29;22021;-59
2022/07/18 04:20:38;;;;;;;7.20;5.57;;;;;;;;;;1664878;29;21630;-60
2022/07/18 04:21:31;;;;;;;5.28;4.80;;;;;;;;;;1655217;29;21639;-59
2022/07/18 04:22:22;;;;;;;5.15;4.72;;;;;;;;;;1654560;29;22103;-60
2022/07/18 04:23:14;;;;;;;6.55;5.15;;;;;;;;;;1655945;29;21604;-60
2022/07/18 04:24:06;;;;;;;5.60;5.00;;;;;;;;;;1660738;29;21937;-60
2022/07/18 04:24:58;;;;;;;5.45;4.95;;;;;;;;;;1662231;29;21916;-59
2022/07/18 04:25:49;;;;;;;4.72;4.32;;;;;;;;;;1662585;29;21724;-59
2022/07/18 04:26:42;;;;;;;4.93;4.43;;;;;;;;;;1662469;29;22614;-59
2022/07/18 04:27:34;;;;;;;6.45;4.82;;;;;;;;;;1662972;29;21687;-59
2022/07/18 04:28:26;;;;;;;4.03;3.60;;;;;;;;;;1662822;29;22422;-60
2022/07/18 04:29:18;;;;;;;4.70;4.30;;;;;;;;;;1662776;29;22079;-58
2022/07/18 04:30:11;;;;;;;4.28;3.88;;;;;;;;;;1662691;29;21614;-60
2022/07/18 04:31:02;;;;;;;4.68;4.25;;;;;;;;;;1663028;29;22056;-59
2022/07/18 04:31:55;;;;;;;5.38;3.95;;;;;;;;;;1664582;29;21535;-59
2022/07/18 04:32:46;;;;;;;4.30;3.90;;;;;;;;;;1662806;29;21993;-59
2022/07/18 04:33:39;;;;;;;4.20;3.83;;;;;;;;;;1665084;29;21908;-60
2022/07/18 04:34:30;;;;;;;6.03;3.53;;;;;;;;;;1662101;29;22311;-60
2022/07/18 04:35:23;;;;;;;7.10;3.65;;;;;;;;;;1661773;29;21786;-60
2022/07/18 04:36:15;;;;;;;4.20;3.58;;;;;;;;;;1662643;29;21671;-60
2022/07/18 04:37:07;;;;;;;4.07;3.67;;;;;;;;;;1665662;29;21638;-59
2022/07/18 04:37:58;;;;;;;3.72;3.42;;;;;;;;;;1661198;29;21752;-59
2022/07/18 04:38:50;;;;;;;4.07;3.67;;;;;;;;;;1661851;29;21633;-58
2022/07/18 04:39:41;;;;;;;3.20;3.00;;;;;;;;;;1663619;29;21664;-58
2022/07/18 04:40:34;;;;;;;4.05;3.63;;;;;;;;;;1662898;29;21837;-60
2022/07/18 04:41:25;;;;;;;3.45;3.15;;;;;;;;;;1661089;29;22446;-60
2022/07/18 04:42:16;;;;;;;3.60;3.15;;;;;;;;;;1662510;29;21631;-59
2022/07/18 04:43:10;;;;;;;3.63;3.33;;;;;;;;;;1662253;29;21606;-59
2022/07/18 04:44:01;;;;;;;3.03;2.75;;;;;;;;;;1662811;29;21863;-59
2022/07/18 04:44:54;;;;;;;4.63;2.55;;;;;;;;;;1662589;29;21597;-59
2022/07/18 04:45:45;;;;;;;2.92;2.60;;;;;;;;;;1663724;29;21647;-60
2022/07/18 04:46:37;;;;;;;2.72;2.53;;;;;;;;;;1661768;29;21595;-60
2022/07/18 04:47:29;;;;;;;3.22;2.70;;;;;;;;;;1659171;29;22678;-60
2022/07/18 04:48:21;;;;;;;2.75;2.50;;;;;;;;;;1662457;29;21597;-60
2022/07/18 04:49:12;;;;;;;3.40;3.10;;;;;;;;;;1663247;29;22267;-60
2022/07/18 04:50:06;;;;;;;3.15;2.85;;;;;;;;;;1655385;29;21655;-60
2022/07/18 04:50:57;;;;;;;2.60;2.40;;;;;;;;;;1656995;29;21655;-60
2022/07/18 04:51:49;;;;;;;2.45;2.25;;;;;;;;;;1659733;29;22279;-59
2022/07/18 04:52:43;;;;;;;2.45;2.25;;;;;;;;;;1663527;29;21581;-58
2022/07/18 04:53:35;;;;;;;2.65;1.90;;;;;;;;;;1662475;29;21644;-59
2022/07/18 04:54:26;;;;;;;3.40;2.10;;;;;;;;;;1663921;29;21639;-60
2022/07/18 04:55:22;;;;;;;2.55;2.03;;;;;;;;;;1662467;29;21605;-60
2022/07/18 04:56:13;;;;;;;2.35;2.15;;;;;;;;;;1661727;29;22366;-60
2022/07/18 04:57:05;;;;;;;2.80;2.60;;;;;;;;;;1657421;29;21615;-60
2022/07/18 04:57:56;;;;;;;2.30;1.92;;;;;;;;;;1654700;29;21631;-60
2022/07/18 04:58:50;;;;;;;2.17;1.80;;;;;;;;;;1660379;29;21778;-60
2022/07/18 04:59:42;;;;;;;3.75;2.17;;;;;;;;;;1662928;29;21634;-59
2022/07/18 05:00:34;;;;;;;1.83;1.73;;;;;;;;;;1662690;29;21659;-58
2022/07/18 05:01:26;;;;;;;2.15;1.70;;;;;;;;;;1662701;29;21653;-59
2022/07/18 05:02:18;;;;;;;1.88;1.67;;;;;;;;;;1661505;29;21624;-60
2022/07/18 05:03:10;;;;;;;1.60;1.50;;;;;;;;;;1662217;29;21966;-59
2022/07/18 05:04:02;;;;;;;2.28;1.83;;;;;;;;;;1661682;29;22062;-60
2022/07/18 05:04:54;;;;;;;1.98;1.88;;;;;;;;;;1663581;29;21599;-60
2022/07/18 05:05:45;;;;;;;1.83;1.73;;;;;;;;;;1662209;29;22292;-60
2022/07/18 05:06:38;;;;;;;1.80;1.70;;;;;;;;;;1663154;29;21628;-60
2022/07/18 05:07:29;;;;;;;2.47;1.60;;;;;;;;;;1662038;29;22239;-60
2022/07/18 05:08:21;;;;;;;4.30;1.80;;;;;;;;;;1661604;29;22499;-59
2022/07/18 05:09:12;;;;;;;1.58;1.40;;;;;;;;;;1661836;29;21623;-60